sensor_id;sensor_type;location;lat;lon;timestamp;P1;P2;P0
74333;PMS5003;62753;40.394;-80.022;2023-04-28T00:01:17;13;11;
74333;PMS5003;62753;40.394;-80.022;2023-04-28T00:03:43;13;11;
74333;PMS5003;62753;40.394;-80.022;2023-04-28T00:06:08;10;9;
74333;PMS5003;62753;40.394;-80.022;2023-04-28T00:08:33;11;10;
74333;PMS5003;62753;40.394;-80.022;2023-04-28T00:10:58;11;10;
74333;PMS5003;62753;40.394;-80.022;2023-04-28T00:13:23;13;13;
74333;PMS5003;62753;40.394;-80.022;2023-04-28T00:15:49;16;14;
74333;PMS5003;62753;40.394;-80.022;2023-04-28T00:18:14;10;8;
74333;PMS5003;62753;40.394;-80.022;2023-04-28T00:20:39;11;11;
74333;PMS5003;62753;40.394;-80.022;2023-04-28T00:23:04;11;10;
74333;PMS5003;62753;40.394;-80.022;2023-04-28T00:25:30;10;9;
74333;PMS5003;62753;40.394;-80.022;2023-04-28T00:27:55;12;10;
74333;PMS5003;62753;40.394;-80.022;2023-04-28T00:30:20;12;11;
74333;PMS5003;62753;40.394;-80.022;2023-04-28T00:32:45;11;8;
74333;PMS5003;62753;40.394;-80.022;2023-04-28T00:35:11;15;13;
74333;PMS5003;62753;40.394;-80.022;2023-04-28T00:37:36;15;13;
74333;PMS5003;62753;40.394;-80.022;2023-04-28T00:40:01;12;11;
74333;PMS5003;62753;40.394;-80.022;2023-04-28T00:42:26;13;11;
74333;PMS5003;62753;40.394;-80.022;2023-04-28T00:44:52;16;12;
74333;PMS5003;62753;40.394;-80.022;2023-04-28T00:47:17;12;11;
74333;PMS5003;62753;40.394;-80.022;2023-04-28T00:49:42;13;12;
74333;PMS5003;62753;40.394;-80.022;2023-04-28T00:52:08;15;14;
74333;PMS5003;62753;40.394;-80.022;2023-04-28T00:54:33;14;14;
74333;PMS5003;62753;40.394;-80.022;2023-04-28T00:56:59;15;13;
74333;PMS5003;62753;40.394;-80.022;2023-04-28T00:59:24;19;17;
74333;PMS5003;62753;40.394;-80.022;2023-04-28T01:01:49;15;13;
74333;PMS5003;62753;40.394;-80.022;2023-04-28T01:04:15;15;14;
74333;PMS5003;62753;40.394;-80.022;2023-04-28T01:06:40;13;12;
74333;PMS5003;62753;40.394;-80.022;2023-04-28T01:09:05;14;13;
74333;PMS5003;62753;40.394;-80.022;2023-04-28T01:11:31;12;11;
74333;PMS5003;62753;40.394;-80.022;2023-04-28T01:13:56;18;15;
74333;PMS5003;62753;40.394;-80.022;2023-04-28T01:16:22;13;11;
74333;PMS5003;62753;40.394;-80.022;2023-04-28T01:18:47;16;15;
74333;PMS5003;62753;40.394;-80.022;2023-04-28T01:21:12;16;14;
74333;PMS5003;62753;40.394;-80.022;2023-04-28T01:23:37;14;13;
74333;PMS5003;62753;40.394;-80.022;2023-04-28T01:26:03;20;19;
74333;PMS5003;62753;40.394;-80.022;2023-04-28T01:28:28;18;17;
74333;PMS5003;62753;40.394;-80.022;2023-04-28T01:30:54;19;18;
74333;PMS5003;62753;40.394;-80.022;2023-04-28T01:33:19;19;18;
74333;PMS5003;62753;40.394;-80.022;2023-04-28T01:35:44;23;20;
74333;PMS5003;62753;40.394;-80.022;2023-04-28T01:38:10;20;20;
74333;PMS5003;62753;40.394;-80.022;2023-04-28T01:40:35;17;16;
74333;PMS5003;62753;40.394;-80.022;2023-04-28T01:43:00;19;19;
74333;PMS5003;62753;40.394;-80.022;2023-04-28T01:45:26;22;21;
74333;PMS5003;62753;40.394;-80.022;2023-04-28T01:47:51;23;22;
74333;PMS5003;62753;40.394;-80.022;2023-04-28T01:50:16;25;24;
74333;PMS5003;62753;40.394;-80.022;2023-04-28T01:52:41;25;23;
74333;PMS5003;62753;40.394;-80.022;2023-04-28T01:55:07;24;21;
74333;PMS5003;62753;40.394;-80.022;2023-04-28T01:57:32;23;22;
74333;PMS5003;62753;40.394;-80.022;2023-04-28T01:59:57;26;21;
74333;PMS5003;62753;40.394;-80.022;2023-04-28T02:02:23;21;21;
74333;PMS5003;62753;40.394;-80.022;2023-04-28T02:04:48;22;21;
74333;PMS5003;62753;40.394;-80.022;2023-04-28T02:07:13;23;22;
74333;PMS5003;62753;40.394;-80.022;2023-04-28T02:09:38;25;19;
74333;PMS5003;62753;40.394;-80.022;2023-04-28T02:12:03;23;22;
74333;PMS5003;62753;40.394;-80.022;2023-04-28T02:14:28;23;21;
74333;PMS5003;62753;40.394;-80.022;2023-04-28T02:16:54;25;21;
74333;PMS5003;62753;40.394;-80.022;2023-04-28T02:19:19;24;22;
74333;PMS5003;62753;40.394;-80.022;2023-04-28T02:21:44;31;26;
74333;PMS5003;62753;40.394;-80.022;2023-04-28T02:24:09;28;24;
74333;PMS5003;62753;40.394;-80.022;2023-04-28T02:26:34;26;22;
74333;PMS5003;62753;40.394;-80.022;2023-04-28T02:29:00;24;22;
74333;PMS5003;62753;40.394;-80.022;2023-04-28T02:31:25;23;21;
74333;PMS5003;62753;40.394;-80.022;2023-04-28T02:33:50;21;21;
74333;PMS5003;62753;40.394;-80.022;2023-04-28T02:36:15;23;22;
74333;PMS5003;62753;40.394;-80.022;2023-04-28T02:38:40;26;24;
74333;PMS5003;62753;40.394;-80.022;2023-04-28T02:41:06;21;21;
74333;PMS5003;62753;40.394;-80.022;2023-04-28T02:43:31;21;19;
74333;PMS5003;62753;40.394;-80.022;2023-04-28T02:45:56;20;20;
74333;PMS5003;62753;40.394;-80.022;2023-04-28T02:48:22;25;22;
74333;PMS5003;62753;40.394;-80.022;2023-04-28T02:50:47;28;22;
74333;PMS5003;62753;40.394;-80.022;2023-04-28T02:53:13;28;24;
74333;PMS5003;62753;40.394;-80.022;2023-04-28T02:55:38;21;20;
74333;PMS5003;62753;40.394;-80.022;2023-04-28T02:58:04;30;28;
74333;PMS5003;62753;40.394;-80.022;2023-04-28T03:00:29;28;25;
74333;PMS5003;62753;40.394;-80.022;2023-04-28T03:02:54;23;22;
74333;PMS5003;62753;40.394;-80.022;2023-04-28T03:05:20;27;26;
74333;PMS5003;62753;40.394;-80.022;2023-04-28T03:07:45;22;21;
74333;PMS5003;62753;40.394;-80.022;2023-04-28T03:10:10;28;22;
74333;PMS5003;62753;40.394;-80.022;2023-04-28T03:12:37;30;25;
74333;PMS5003;62753;40.394;-80.022;2023-04-28T03:15:02;24;23;
74333;PMS5003;62753;40.394;-80.022;2023-04-28T03:17:27;23;22;
74333;PMS5003;62753;40.394;-80.022;2023-04-28T03:19:52;29;24;
74333;PMS5003;62753;40.394;-80.022;2023-04-28T03:22:18;22;22;
74333;PMS5003;62753;40.394;-80.022;2023-04-28T03:24:43;24;20;
74333;PMS5003;62753;40.394;-80.022;2023-04-28T03:27:09;24;20;
74333;PMS5003;62753;40.394;-80.022;2023-04-28T03:29:34;24;19;
74333;PMS5003;62753;40.394;-80.022;2023-04-28T03:31:59;28;25;
74333;PMS5003;62753;40.394;-80.022;2023-04-28T03:34:25;24;23;
74333;PMS5003;62753;40.394;-80.022;2023-04-28T03:36:50;22;21;
74333;PMS5003;62753;40.394;-80.022;2023-04-28T03:39:15;22;21;
74333;PMS5003;62753;40.394;-80.022;2023-04-28T03:41:40;27;23;
74333;PMS5003;62753;40.394;-80.022;2023-04-28T03:44:05;26;24;
74333;PMS5003;62753;40.394;-80.022;2023-04-28T03:46:32;24;22;
74333;PMS5003;62753;40.394;-80.022;2023-04-28T03:48:57;22;22;
74333;PMS5003;62753;40.394;-80.022;2023-04-28T03:51:22;25;25;
74333;PMS5003;62753;40.394;-80.022;2023-04-28T03:53:47;24;22;
74333;PMS5003;62753;40.394;-80.022;2023-04-28T03:56:12;26;25;
74333;PMS5003;62753;40.394;-80.022;2023-04-28T03:58:38;28;24;
74333;PMS5003;62753;40.394;-80.022;2023-04-28T04:01:03;23;22;
74333;PMS5003;62753;40.394;-80.022;2023-04-28T04:03:28;23;21;
74333;PMS5003;62753;40.394;-80.022;2023-04-28T04:05:54;25;25;
74333;PMS5003;62753;40.394;-80.022;2023-04-28T04:08:19;31;27;
74333;PMS5003;62753;40.394;-80.022;2023-04-28T04:10:45;22;22;
74333;PMS5003;62753;40.394;-80.022;2023-04-28T04:13:10;26;25;
74333;PMS5003;62753;40.394;-80.022;2023-04-28T04:15:35;23;23;
74333;PMS5003;62753;40.394;-80.022;2023-04-28T04:18:01;28;23;
74333;PMS5003;62753;40.394;-80.022;2023-04-28T04:20:26;24;22;
74333;PMS5003;62753;40.394;-80.022;2023-04-28T04:22:52;21;20;
74333;PMS5003;62753;40.394;-80.022;2023-04-28T04:25:17;27;25;
74333;PMS5003;62753;40.394;-80.022;2023-04-28T04:27:42;27;24;
74333;PMS5003;62753;40.394;-80.022;2023-04-28T04:30:08;25;22;
74333;PMS5003;62753;40.394;-80.022;2023-04-28T04:32:33;26;26;
74333;PMS5003;62753;40.394;-80.022;2023-04-28T04:34:58;26;25;
74333;PMS5003;62753;40.394;-80.022;2023-04-28T04:37:24;29;27;
74333;PMS5003;62753;40.394;-80.022;2023-04-28T04:39:49;25;23;
74333;PMS5003;62753;40.394;-80.022;2023-04-28T04:42:15;25;24;
74333;PMS5003;62753;40.394;-80.022;2023-04-28T04:44:41;30;27;
74333;PMS5003;62753;40.394;-80.022;2023-04-28T04:47:06;30;26;
74333;PMS5003;62753;40.394;-80.022;2023-04-28T04:49:31;29;26;
74333;PMS5003;62753;40.394;-80.022;2023-04-28T04:51:57;30;26;
74333;PMS5003;62753;40.394;-80.022;2023-04-28T04:54:23;28;25;
74333;PMS5003;62753;40.394;-80.022;2023-04-28T04:56:48;26;25;
74333;PMS5003;62753;40.394;-80.022;2023-04-28T04:59:13;27;25;
74333;PMS5003;62753;40.394;-80.022;2023-04-28T05:01:39;25;24;
74333;PMS5003;62753;40.394;-80.022;2023-04-28T05:04:04;29;27;
74333;PMS5003;62753;40.394;-80.022;2023-04-28T05:06:29;30;28;
74333;PMS5003;62753;40.394;-80.022;2023-04-28T05:08:54;28;26;
74333;PMS5003;62753;40.394;-80.022;2023-04-28T05:11:19;26;25;
74333;PMS5003;62753;40.394;-80.022;2023-04-28T05:13:44;31;24;
74333;PMS5003;62753;40.394;-80.022;2023-04-28T05:16:10;29;26;
74333;PMS5003;62753;40.394;-80.022;2023-04-28T05:18:35;31;29;
74333;PMS5003;62753;40.394;-80.022;2023-04-28T05:21:00;25;25;
74333;PMS5003;62753;40.394;-80.022;2023-04-28T05:23:25;23;23;
74333;PMS5003;62753;40.394;-80.022;2023-04-28T05:25:51;29;27;
74333;PMS5003;62753;40.394;-80.022;2023-04-28T05:28:17;24;24;
74333;PMS5003;62753;40.394;-80.022;2023-04-28T05:30:42;30;27;
74333;PMS5003;62753;40.394;-80.022;2023-04-28T05:33:07;36;30;
74333;PMS5003;62753;40.394;-80.022;2023-04-28T05:35:32;30;28;
74333;PMS5003;62753;40.394;-80.022;2023-04-28T05:37:58;35;29;
74333;PMS5003;62753;40.394;-80.022;2023-04-28T05:40:23;28;25;
74333;PMS5003;62753;40.394;-80.022;2023-04-28T05:42:49;29;26;
74333;PMS5003;62753;40.394;-80.022;2023-04-28T05:45:14;34;30;
74333;PMS5003;62753;40.394;-80.022;2023-04-28T05:47:40;31;30;
74333;PMS5003;62753;40.394;-80.022;2023-04-28T05:50:05;34;30;
74333;PMS5003;62753;40.394;-80.022;2023-04-28T05:52:31;28;27;
74333;PMS5003;62753;40.394;-80.022;2023-04-28T05:54:56;33;26;
74333;PMS5003;62753;40.394;-80.022;2023-04-28T05:57:22;24;24;
74333;PMS5003;62753;40.394;-80.022;2023-04-28T05:59:47;27;25;
74333;PMS5003;62753;40.394;-80.022;2023-04-28T06:02:13;30;28;
74333;PMS5003;62753;40.394;-80.022;2023-04-28T06:04:38;28;26;
74333;PMS5003;62753;40.394;-80.022;2023-04-28T06:07:04;29;25;
74333;PMS5003;62753;40.394;-80.022;2023-04-28T06:09:29;31;27;
74333;PMS5003;62753;40.394;-80.022;2023-04-28T06:11:55;27;25;
74333;PMS5003;62753;40.394;-80.022;2023-04-28T06:14:21;34;30;
74333;PMS5003;62753;40.394;-80.022;2023-04-28T06:16:46;25;25;
74333;PMS5003;62753;40.394;-80.022;2023-04-28T06:19:11;37;31;
74333;PMS5003;62753;40.394;-80.022;2023-04-28T06:21:37;37;32;
74333;PMS5003;62753;40.394;-80.022;2023-04-28T06:24:02;35;31;
74333;PMS5003;62753;40.394;-80.022;2023-04-28T06:26:28;35;31;
74333;PMS5003;62753;40.394;-80.022;2023-04-28T06:28:53;34;30;
74333;PMS5003;62753;40.394;-80.022;2023-04-28T06:31:18;33;28;
74333;PMS5003;62753;40.394;-80.022;2023-04-28T06:33:44;32;26;
74333;PMS5003;62753;40.394;-80.022;2023-04-28T06:36:09;33;30;
74333;PMS5003;62753;40.394;-80.022;2023-04-28T06:38:35;29;27;
74333;PMS5003;62753;40.394;-80.022;2023-04-28T06:41:00;36;31;
74333;PMS5003;62753;40.394;-80.022;2023-04-28T06:43:26;29;28;
74333;PMS5003;62753;40.394;-80.022;2023-04-28T06:45:51;30;27;
74333;PMS5003;62753;40.394;-80.022;2023-04-28T06:48:16;28;27;
74333;PMS5003;62753;40.394;-80.022;2023-04-28T06:50:42;26;26;
74333;PMS5003;62753;40.394;-80.022;2023-04-28T06:53:07;30;28;
74333;PMS5003;62753;40.394;-80.022;2023-04-28T06:55:33;31;29;
74333;PMS5003;62753;40.394;-80.022;2023-04-28T06:57:58;26;24;
74333;PMS5003;62753;40.394;-80.022;2023-04-28T07:00:24;27;25;
74333;PMS5003;62753;40.394;-80.022;2023-04-28T07:02:48;25;25;
74333;PMS5003;62753;40.394;-80.022;2023-04-28T07:05:14;33;28;
74333;PMS5003;62753;40.394;-80.022;2023-04-28T07:07:39;26;25;
74333;PMS5003;62753;40.394;-80.022;2023-04-28T07:10:05;32;29;
74333;PMS5003;62753;40.394;-80.022;2023-04-28T07:12:30;32;29;
74333;PMS5003;62753;40.394;-80.022;2023-04-28T07:14:55;26;25;
74333;PMS5003;62753;40.394;-80.022;2023-04-28T07:17:20;27;26;
74333;PMS5003;62753;40.394;-80.022;2023-04-28T07:19:45;27;24;
74333;PMS5003;62753;40.394;-80.022;2023-04-28T07:22:10;27;26;
74333;PMS5003;62753;40.394;-80.022;2023-04-28T07:24:36;32;28;
74333;PMS5003;62753;40.394;-80.022;2023-04-28T07:27:02;27;27;
74333;PMS5003;62753;40.394;-80.022;2023-04-28T07:29:27;29;26;
74333;PMS5003;62753;40.394;-80.022;2023-04-28T07:31:52;28;27;
74333;PMS5003;62753;40.394;-80.022;2023-04-28T07:34:18;34;28;
74333;PMS5003;62753;40.394;-80.022;2023-04-28T07:36:43;27;26;
74333;PMS5003;62753;40.394;-80.022;2023-04-28T07:39:08;25;25;
74333;PMS5003;62753;40.394;-80.022;2023-04-28T07:41:35;30;29;
74333;PMS5003;62753;40.394;-80.022;2023-04-28T07:43:58;32;25;
74333;PMS5003;62753;40.394;-80.022;2023-04-28T07:46:24;28;27;
74333;PMS5003;62753;40.394;-80.022;2023-04-28T07:48:49;27;25;
74333;PMS5003;62753;40.394;-80.022;2023-04-28T07:51:14;27;26;
74333;PMS5003;62753;40.394;-80.022;2023-04-28T07:53:39;33;28;
74333;PMS5003;62753;40.394;-80.022;2023-04-28T07:56:05;28;24;
74333;PMS5003;62753;40.394;-80.022;2023-04-28T07:58:30;26;26;
74333;PMS5003;62753;40.394;-80.022;2023-04-28T08:00:55;27;25;
74333;PMS5003;62753;40.394;-80.022;2023-04-28T08:03:20;33;27;
74333;PMS5003;62753;40.394;-80.022;2023-04-28T08:05:45;23;23;
74333;PMS5003;62753;40.394;-80.022;2023-04-28T08:08:11;24;23;
74333;PMS5003;62753;40.394;-80.022;2023-04-28T08:10:36;33;27;
74333;PMS5003;62753;40.394;-80.022;2023-04-28T08:13:01;26;22;
74333;PMS5003;62753;40.394;-80.022;2023-04-28T08:15:26;27;24;
74333;PMS5003;62753;40.394;-80.022;2023-04-28T08:17:52;24;23;
74333;PMS5003;62753;40.394;-80.022;2023-04-28T08:20:17;20;20;
74333;PMS5003;62753;40.394;-80.022;2023-04-28T08:22:42;27;24;
74333;PMS5003;62753;40.394;-80.022;2023-04-28T08:25:08;31;26;
74333;PMS5003;62753;40.394;-80.022;2023-04-28T08:27:32;28;27;
74333;PMS5003;62753;40.394;-80.022;2023-04-28T08:29:58;28;25;
74333;PMS5003;62753;40.394;-80.022;2023-04-28T08:32:23;26;24;
74333;PMS5003;62753;40.394;-80.022;2023-04-28T08:34:49;31;28;
74333;PMS5003;62753;40.394;-80.022;2023-04-28T08:37:14;27;23;
74333;PMS5003;62753;40.394;-80.022;2023-04-28T08:39:39;24;23;
74333;PMS5003;62753;40.394;-80.022;2023-04-28T08:42:05;29;25;
74333;PMS5003;62753;40.394;-80.022;2023-04-28T08:44:32;29;26;
74333;PMS5003;62753;40.394;-80.022;2023-04-28T08:46:55;28;24;
74333;PMS5003;62753;40.394;-80.022;2023-04-28T08:49:21;25;24;
74333;PMS5003;62753;40.394;-80.022;2023-04-28T08:51:48;28;26;
74333;PMS5003;62753;40.394;-80.022;2023-04-28T08:54:13;30;23;
74333;PMS5003;62753;40.394;-80.022;2023-04-28T08:56:37;27;26;
74333;PMS5003;62753;40.394;-80.022;2023-04-28T08:59:03;32;29;
74333;PMS5003;62753;40.394;-80.022;2023-04-28T09:01:28;32;28;
74333;PMS5003;62753;40.394;-80.022;2023-04-28T09:03:54;36;29;
74333;PMS5003;62753;40.394;-80.022;2023-04-28T09:06:19;39;34;
74333;PMS5003;62753;40.394;-80.022;2023-04-28T09:08:44;57;45;
74333;PMS5003;62753;40.394;-80.022;2023-04-28T09:11:10;67;51;
74333;PMS5003;62753;40.394;-80.022;2023-04-28T09:13:35;64;48;
74333;PMS5003;62753;40.394;-80.022;2023-04-28T09:16:01;67;56;
74333;PMS5003;62753;40.394;-80.022;2023-04-28T09:18:27;66;50;
74333;PMS5003;62753;40.394;-80.022;2023-04-28T09:20:52;61;49;
74333;PMS5003;62753;40.394;-80.022;2023-04-28T09:23:18;59;47;
74333;PMS5003;62753;40.394;-80.022;2023-04-28T09:30:37;85;66;
74333;PMS5003;62753;40.394;-80.022;2023-04-28T09:33:03;71;57;
74333;PMS5003;62753;40.394;-80.022;2023-04-28T09:40:15;43;40;
74333;PMS5003;62753;40.394;-80.022;2023-04-28T09:42:41;37;30;
74333;PMS5003;62753;40.394;-80.022;2023-04-28T09:45:06;36;30;
74333;PMS5003;62753;40.394;-80.022;2023-04-28T09:47:31;40;37;
74333;PMS5003;62753;40.394;-80.022;2023-04-28T09:49:56;33;27;
74333;PMS5003;62753;40.394;-80.022;2023-04-28T09:52:22;25;21;
74333;PMS5003;62753;40.394;-80.022;2023-04-28T09:54:48;32;27;
74333;PMS5003;62753;40.394;-80.022;2023-04-28T09:57:12;29;27;
74333;PMS5003;62753;40.394;-80.022;2023-04-28T09:59:38;18;18;
74333;PMS5003;62753;40.394;-80.022;2023-04-28T10:02:03;25;23;
74333;PMS5003;62753;40.394;-80.022;2023-04-28T10:04:29;22;19;
74333;PMS5003;62753;40.394;-80.022;2023-04-28T10:06:55;18;16;
74333;PMS5003;62753;40.394;-80.022;2023-04-28T10:09:20;15;14;
74333;PMS5003;62753;40.394;-80.022;2023-04-28T10:11:45;14;14;
74333;PMS5003;62753;40.394;-80.022;2023-04-28T10:14:10;19;18;
74333;PMS5003;62753;40.394;-80.022;2023-04-28T10:16:35;17;15;
74333;PMS5003;62753;40.394;-80.022;2023-04-28T10:19:01;15;14;
74333;PMS5003;62753;40.394;-80.022;2023-04-28T10:21:26;13;12;
74333;PMS5003;62753;40.394;-80.022;2023-04-28T10:26:17;13;11;
74333;PMS5003;62753;40.394;-80.022;2023-04-28T10:28:44;14;13;
74333;PMS5003;62753;40.394;-80.022;2023-04-28T10:31:09;14;11;
74333;PMS5003;62753;40.394;-80.022;2023-04-28T10:33:33;11;11;
74333;PMS5003;62753;40.394;-80.022;2023-04-28T10:35:58;9;8;
74333;PMS5003;62753;40.394;-80.022;2023-04-28T10:38:24;9;9;
74333;PMS5003;62753;40.394;-80.022;2023-04-28T10:40:49;9;8;
74333;PMS5003;62753;40.394;-80.022;2023-04-28T10:43:26;8;8;
74333;PMS5003;62753;40.394;-80.022;2023-04-28T10:48:04;10;8;
74333;PMS5003;62753;40.394;-80.022;2023-04-28T10:50:30;10;8;
74333;PMS5003;62753;40.394;-80.022;2023-04-28T10:52:55;6;6;
74333;PMS5003;62753;40.394;-80.022;2023-04-28T10:55:27;8;8;
74333;PMS5003;62753;40.394;-80.022;2023-04-28T10:57:46;7;7;
74333;PMS5003;62753;40.394;-80.022;2023-04-28T11:02:37;8;8;
74333;PMS5003;62753;40.394;-80.022;2023-04-28T11:05:11;6;6;
74333;PMS5003;62753;40.394;-80.022;2023-04-28T11:07:28;8;7;
74333;PMS5003;62753;40.394;-80.022;2023-04-28T11:09:53;7;6;
74333;PMS5003;62753;40.394;-80.022;2023-04-28T11:12:18;7;6;
74333;PMS5003;62753;40.394;-80.022;2023-04-28T11:14:43;6;6;
74333;PMS5003;62753;40.394;-80.022;2023-04-28T11:17:09;7;5;
74333;PMS5003;62753;40.394;-80.022;2023-04-28T11:19:35;5;4;
74333;PMS5003;62753;40.394;-80.022;2023-04-28T11:22:00;4;4;
74333;PMS5003;62753;40.394;-80.022;2023-04-28T11:24:25;6;6;
74333;PMS5003;62753;40.394;-80.022;2023-04-28T11:26:50;6;6;
74333;PMS5003;62753;40.394;-80.022;2023-04-28T11:29:15;6;5;
74333;PMS5003;62753;40.394;-80.022;2023-04-28T11:34:08;5;5;
74333;PMS5003;62753;40.394;-80.022;2023-04-28T11:36:32;6;6;
74333;PMS5003;62753;40.394;-80.022;2023-04-28T11:38:57;5;5;
74333;PMS5003;62753;40.394;-80.022;2023-04-28T11:41:22;6;5;
74333;PMS5003;62753;40.394;-80.022;2023-04-28T11:43:47;6;6;
74333;PMS5003;62753;40.394;-80.022;2023-04-28T11:46:16;3;3;
74333;PMS5003;62753;40.394;-80.022;2023-04-28T11:48:44;4;4;
74333;PMS5003;62753;40.394;-80.022;2023-04-28T11:51:04;6;5;
74333;PMS5003;62753;40.394;-80.022;2023-04-28T11:53:40;3;3;
74333;PMS5003;62753;40.394;-80.022;2023-04-28T11:58:20;5;4;
74333;PMS5003;62753;40.394;-80.022;2023-04-28T12:00:45;6;5;
74333;PMS5003;62753;40.394;-80.022;2023-04-28T12:03:10;4;4;
74333;PMS5003;62753;40.394;-80.022;2023-04-28T12:08:01;6;6;
74333;PMS5003;62753;40.394;-80.022;2023-04-28T12:10:27;4;4;
74333;PMS5003;62753;40.394;-80.022;2023-04-28T12:12:52;5;4;
74333;PMS5003;62753;40.394;-80.022;2023-04-28T12:15:17;4;4;
74333;PMS5003;62753;40.394;-80.022;2023-04-28T12:17:43;7;6;
74333;PMS5003;62753;40.394;-80.022;2023-04-28T12:20:09;5;5;
74333;PMS5003;62753;40.394;-80.022;2023-04-28T12:25:01;6;5;
74333;PMS5003;62753;40.394;-80.022;2023-04-28T12:27:24;5;4;
74333;PMS5003;62753;40.394;-80.022;2023-04-28T12:29:49;7;7;
74333;PMS5003;62753;40.394;-80.022;2023-04-28T12:32:15;6;6;
74333;PMS5003;62753;40.394;-80.022;2023-04-28T12:34:41;6;6;
74333;PMS5003;62753;40.394;-80.022;2023-04-28T12:37:06;7;7;
74333;PMS5003;62753;40.394;-80.022;2023-04-28T12:39:31;5;5;
74333;PMS5003;62753;40.394;-80.022;2023-04-28T12:41:56;5;5;
74333;PMS5003;62753;40.394;-80.022;2023-04-28T12:44:22;5;4;
74333;PMS5003;62753;40.394;-80.022;2023-04-28T12:46:47;7;6;
74333;PMS5003;62753;40.394;-80.022;2023-04-28T12:49:12;5;4;
74333;PMS5003;62753;40.394;-80.022;2023-04-28T12:51:38;5;5;
74333;PMS5003;62753;40.394;-80.022;2023-04-28T12:54:03;6;5;
74333;PMS5003;62753;40.394;-80.022;2023-04-28T12:56:28;5;5;
74333;PMS5003;62753;40.394;-80.022;2023-04-28T12:58:53;10;8;
74333;PMS5003;62753;40.394;-80.022;2023-04-28T13:01:19;5;4;
74333;PMS5003;62753;40.394;-80.022;2023-04-28T13:03:44;4;4;
74333;PMS5003;62753;40.394;-80.022;2023-04-28T13:06:09;7;7;
74333;PMS5003;62753;40.394;-80.022;2023-04-28T13:08:35;3;3;
74333;PMS5003;62753;40.394;-80.022;2023-04-28T13:11:00;5;4;
74333;PMS5003;62753;40.394;-80.022;2023-04-28T13:13:25;6;6;
74333;PMS5003;62753;40.394;-80.022;2023-04-28T13:15:51;3;3;
74333;PMS5003;62753;40.394;-80.022;2023-04-28T13:18:16;6;6;
74333;PMS5003;62753;40.394;-80.022;2023-04-28T13:20:41;2;2;
74333;PMS5003;62753;40.394;-80.022;2023-04-28T13:23:07;2;2;
74333;PMS5003;62753;40.394;-80.022;2023-04-28T13:25:32;6;4;
74333;PMS5003;62753;40.394;-80.022;2023-04-28T13:27:58;5;4;
74333;PMS5003;62753;40.394;-80.022;2023-04-28T13:30:22;4;4;
74333;PMS5003;62753;40.394;-80.022;2023-04-28T13:32:48;5;4;
74333;PMS5003;62753;40.394;-80.022;2023-04-28T13:35:13;4;4;
74333;PMS5003;62753;40.394;-80.022;2023-04-28T13:37:39;3;3;
74333;PMS5003;62753;40.394;-80.022;2023-04-28T13:40:05;3;3;
74333;PMS5003;62753;40.394;-80.022;2023-04-28T13:42:29;4;4;
74333;PMS5003;62753;40.394;-80.022;2023-04-28T13:44:55;3;3;
74333;PMS5003;62753;40.394;-80.022;2023-04-28T13:47:20;3;3;
74333;PMS5003;62753;40.394;-80.022;2023-04-28T13:49:46;3;3;
74333;PMS5003;62753;40.394;-80.022;2023-04-28T13:52:11;3;3;
74333;PMS5003;62753;40.394;-80.022;2023-04-28T13:54:36;4;4;
74333;PMS5003;62753;40.394;-80.022;2023-04-28T13:57:02;4;4;
74333;PMS5003;62753;40.394;-80.022;2023-04-28T13:59:27;3;2;
74333;PMS5003;62753;40.394;-80.022;2023-04-28T14:01:52;3;3;
74333;PMS5003;62753;40.394;-80.022;2023-04-28T14:04:18;4;4;
74333;PMS5003;62753;40.394;-80.022;2023-04-28T14:06:43;3;3;
74333;PMS5003;62753;40.394;-80.022;2023-04-28T14:09:09;4;4;
74333;PMS5003;62753;40.394;-80.022;2023-04-28T14:11:34;3;3;
74333;PMS5003;62753;40.394;-80.022;2023-04-28T14:13:59;5;3;
74333;PMS5003;62753;40.394;-80.022;2023-04-28T14:16:25;4;3;
74333;PMS5003;62753;40.394;-80.022;2023-04-28T14:18:50;3;3;
74333;PMS5003;62753;40.394;-80.022;2023-04-28T14:21:15;4;4;
74333;PMS5003;62753;40.394;-80.022;2023-04-28T14:23:40;6;5;
74333;PMS5003;62753;40.394;-80.022;2023-04-28T14:26:07;4;4;
74333;PMS5003;62753;40.394;-80.022;2023-04-28T14:28:32;5;4;
74333;PMS5003;62753;40.394;-80.022;2023-04-28T14:30:57;3;3;
74333;PMS5003;62753;40.394;-80.022;2023-04-28T14:33:22;2;2;
74333;PMS5003;62753;40.394;-80.022;2023-04-28T14:35:47;4;3;
74333;PMS5003;62753;40.394;-80.022;2023-04-28T14:38:13;5;3;
74333;PMS5003;62753;40.394;-80.022;2023-04-28T14:40:38;2;2;
74333;PMS5003;62753;40.394;-80.022;2023-04-28T14:43:03;5;2;
74333;PMS5003;62753;40.394;-80.022;2023-04-28T14:45:29;3;3;
74333;PMS5003;62753;40.394;-80.022;2023-04-28T14:47:54;3;3;
74333;PMS5003;62753;40.394;-80.022;2023-04-28T14:50:20;3;2;
74333;PMS5003;62753;40.394;-80.022;2023-04-28T14:52:45;3;3;
74333;PMS5003;62753;40.394;-80.022;2023-04-28T14:55:10;2;2;
74333;PMS5003;62753;40.394;-80.022;2023-04-28T14:57:35;4;3;
74333;PMS5003;62753;40.394;-80.022;2023-04-28T15:00:01;3;3;
74333;PMS5003;62753;40.394;-80.022;2023-04-28T15:02:26;10;5;
74333;PMS5003;62753;40.394;-80.022;2023-04-28T15:04:51;5;4;
74333;PMS5003;62753;40.394;-80.022;2023-04-28T15:07:17;2;2;
74333;PMS5003;62753;40.394;-80.022;2023-04-28T15:09:42;4;3;
74333;PMS5003;62753;40.394;-80.022;2023-04-28T15:12:07;2;2;
74333;PMS5003;62753;40.394;-80.022;2023-04-28T15:14:33;3;3;
74333;PMS5003;62753;40.394;-80.022;2023-04-28T15:16:58;3;3;
74333;PMS5003;62753;40.394;-80.022;2023-04-28T15:19:23;2;2;
74333;PMS5003;62753;40.394;-80.022;2023-04-28T15:21:49;4;4;
74333;PMS5003;62753;40.394;-80.022;2023-04-28T15:24:14;4;3;
74333;PMS5003;62753;40.394;-80.022;2023-04-28T15:26:40;2;2;
74333;PMS5003;62753;40.394;-80.022;2023-04-28T15:29:04;4;4;
74333;PMS5003;62753;40.394;-80.022;2023-04-28T15:31:30;2;1;
74333;PMS5003;62753;40.394;-80.022;2023-04-28T15:33:55;1;1;
74333;PMS5003;62753;40.394;-80.022;2023-04-28T15:36:21;4;3;
74333;PMS5003;62753;40.394;-80.022;2023-04-28T15:38:46;2;2;
74333;PMS5003;62753;40.394;-80.022;2023-04-28T15:41:11;3;2;
74333;PMS5003;62753;40.394;-80.022;2023-04-28T15:43:36;2;2;
74333;PMS5003;62753;40.394;-80.022;2023-04-28T15:46:02;4;3;
74333;PMS5003;62753;40.394;-80.022;2023-04-28T15:48:27;2;2;
74333;PMS5003;62753;40.394;-80.022;2023-04-28T15:50:53;3;2;
74333;PMS5003;62753;40.394;-80.022;2023-04-28T15:53:18;1;1;
74333;PMS5003;62753;40.394;-80.022;2023-04-28T15:55:43;1;1;
74333;PMS5003;62753;40.394;-80.022;2023-04-28T15:58:08;2;1;
74333;PMS5003;62753;40.394;-80.022;2023-04-28T16:00:35;1;1;
74333;PMS5003;62753;40.394;-80.022;2023-04-28T16:02:59;1;1;
74333;PMS5003;62753;40.394;-80.022;2023-04-28T16:05:24;3;3;
74333;PMS5003;62753;40.394;-80.022;2023-04-28T16:07:49;2;2;
74333;PMS5003;62753;40.394;-80.022;2023-04-28T16:10:15;1;1;